Allagash, Maine
Current Conditions -  °F | °C
As of 2:53 AM on Friday 19 Dec 2014 (Local Time) from KFVE Reporting Station
Overcast Overcast  
Wind Chill:   Ceiling: 900
Heat Index: 21°   Visibility: 10mi
Dew Point: 19°   Wind: 15mph
Humidity: 92%   Direction: 340°NNW
Pressure: 29.7"   Gusts: 26mph
Location:  47.1951°N, 69.2728°W
Report Text: KFVE 190753Z AUTO 34013G23KT 10SM OVC009 M06/M07 A2970 RMK AO2 SLP070 T10611072
Loading
Personal Weather Stations






























Interactive Weather Map New forecast layout! Learn more

10-Day Weather Forecast

Advertisements
Track Severe Weather on mobile